Flight Track Log - Related Links

Times and Time Zones

All times are in EDT time to prevent confusion due to time zone crossing. See the N830QS flight status page for this flight to view local times or setup timezone preferences in your user account.

Time Position Orientation Groundspeed Altitude Reporting Facility
EDT Latitude Longitude Course Direction KTS km/h feet Rate Location/Type
Wed 15:31:52 26.1033 -81.6800 153° Southeast 217 402 3,800  Level Miami Center
Wed 15:32:52 26.0528 -81.6897 190° South 232 430 5,900 2,500 Climbing Miami Center
Wed 15:33:52 25.9869 -81.7264 207° Southwest 255 472 8,800 3,050 Climbing Miami Center
Wed 15:34:52 25.9186 -81.7675 208° Southwest 272 504 12,000 3,100 Climbing Miami Center
Wed 15:35:52 25.8464 -81.8058 206° Southwest 287 531 15,000 3,050 Climbing Miami Center
Wed 15:36:00 25.5772 -81.5873 153° Southeast  Level FlightAware Approximate
Wed 15:36:52 25.7792 -81.8769 224° Southwest 302 560 18,100  Level Miami Center
Wed 15:37:00 25.4840 -81.5355 153° Southeast  Level FlightAware Approximate
Wed 15:37:52 25.7308 -81.9464 232° Southwest 319 591 21,300  Level Miami Center
Wed 15:38:52 25.6619 -82.0056 218° Southwest 319 591 23,000 850 Climbing Miami Center
Wed 15:39:52 25.5825 -82.0692 216° Southwest 335 621 23,000 750 Level Miami Center
Wed 15:40:52 25.5008 -82.1392 218° Southwest 357 661 24,500 1,400 Climbing Miami Center
Wed 15:41:52 25.4269 -82.2164 223° Southwest 371 687 25,800 1,100 Climbing Miami Center
Wed 15:42:52 25.3511 -82.2933 223° Southwest 371 687 26,700 600 Climbing Miami Center
Wed 15:43:52 25.2711 -82.3681 220° Southwest 371 687 27,000 350 Climbing Miami Center
Wed 15:44:52 25.1728 -82.4231 207° Southwest 390 723 27,400 1,150 Climbing Miami Center
Wed 15:45:52 25.0747 -82.4758 206° Southwest 390 723 29,300 1,800 Climbing Miami Center
Wed 15:46:52 24.9811 -82.5289 207° Southwest 395 732 31,000 1,700 Climbing Miami Center
Wed 15:47:52 24.8872 -82.5794 206° Southwest 395 732 32,700 1,700 Climbing Miami Center
Wed 15:48:52 24.7914 -82.6300 206° Southwest 390 723 34,400 1,550 Climbing Miami Center
Wed 15:49:52 24.6994 -82.6806 207° Southwest 385 713 35,800 1,600 Climbing Miami Center
Wed 15:50:52 24.6058 -82.7286 205° Southwest 374 692 37,600 1,600 Climbing Miami Center
Wed 15:51:52 24.5161 -82.7792 207° Southwest 368 681 39,000 1,200 Climbing Miami Center
Wed 15:52:52 24.4267 -82.8250 205° Southwest 368 681 40,000 500 Climbing Miami Center
Wed 15:53:52 24.3286 -82.8772 206° Southwest 380 703 40,000  Level Miami Center
Wed 15:54:52 24.2261 -82.9314 206° Southwest 397 735 40,000  Level Miami Center
Wed 15:56:00 24.1197 -82.9696 206° Southwest  Level FlightAware Approximate
Wed 16:03:00 23.7547 -83.5761 244° Southwest  Level FlightAware Approximate
Wed 16:04:00 23.7110 -83.6721 244° Southwest  Level FlightAware Approximate
Wed 16:05:00 23.6673 -83.7680 244° Southwest  Level FlightAware Approximate
Wed 16:06:00 23.6235 -83.8639 244° Southwest  Level FlightAware Approximate
Wed 16:07:00 23.5796 -83.9596 243° Southwest  Level FlightAware Approximate
Wed 16:08:00 23.5357 -84.0554 243° Southwest  Level FlightAware Approximate
Wed 16:09:00 23.4918 -84.1510 243° Southwest  Level FlightAware Approximate
Wed 16:10:00 23.4477 -84.2466 243° Southwest  Level FlightAware Approximate
Wed 16:11:00 23.4037 -84.3421 243° Southwest  Level FlightAware Approximate
Wed 16:12:00 23.3609 -84.4383 244° Southwest  Level FlightAware Approximate
Wed 16:13:00 23.3182 -84.5345 244° Southwest  Level FlightAware Approximate
Wed 16:14:00 23.2755 -84.6307 244° Southwest  Level FlightAware Approximate
Wed 16:15:00 23.2327 -84.7268 244° Southwest  Level FlightAware Approximate
Wed 16:16:00 23.1820 -84.8160 219° Southwest  Level FlightAware Approximate
Wed 16:17:00 23.1061 -84.8837 219° Southwest  Level FlightAware Approximate
Wed 16:18:00 23.0302 -84.9512 219° Southwest  Level FlightAware Approximate
Wed 16:19:00 22.9542 -85.0186 219° Southwest  Level FlightAware Approximate
Wed 16:20:00 22.8788 -85.0867 221° Southwest  Level FlightAware Approximate
Wed 16:21:00 22.8049 -85.1567 221° Southwest  Level FlightAware Approximate
Wed 16:22:00 22.7309 -85.2266 221° Southwest  Level FlightAware Approximate
Wed 16:23:00 22.6569 -85.2964 221° Southwest  Level FlightAware Approximate
Wed 16:24:00 22.5944 -85.3718 221° Southwest  Level FlightAware Approximate
Wed 16:25:00 22.5200 -85.4411 221° Southwest  Level FlightAware Approximate
Wed 16:26:00 22.4455 -85.5102 221° Southwest  Level FlightAware Approximate
Wed 16:27:00 22.3710 -85.5793 221° Southwest  Level FlightAware Approximate
Wed 16:28:00 22.2981 -85.6502 220° Southwest  Level FlightAware Approximate
Wed 16:29:00 22.2231 -85.7185 220° Southwest  Level FlightAware Approximate
Wed 16:30:00 22.1480 -85.7867 220° Southwest  Level FlightAware Approximate
Wed 16:31:00 22.0730 -85.8549 220° Southwest  Level FlightAware Approximate
Wed 16:32:00 21.9980 -85.9231 220° Southwest  Level FlightAware Approximate
Wed 16:33:00 21.9240 -85.9926 223° Southwest  Level FlightAware Approximate
Wed 16:34:00 21.8522 -86.0646 223° Southwest  Level FlightAware Approximate
Wed 16:35:00 21.7802 -86.1365 223° Southwest  Level FlightAware Approximate
Wed 16:36:00 21.7084 -86.2084 223° Southwest  Level FlightAware Approximate
Wed 16:37:00 21.6365 -86.2802 223° Southwest  Level FlightAware Approximate
Wed 16:38:00 21.5646 -86.3521 223° Southwest  Level FlightAware Approximate
Wed 16:39:00 21.4925 -86.4235 220° Southwest  Level FlightAware Approximate
Wed 16:40:00 21.4173 -86.4912 220° Southwest  Level FlightAware Approximate
Wed 16:41:00 21.3421 -86.5588 220° Southwest  Level FlightAware Approximate
Wed 16:42:00 21.2740 -86.6346 227° Southwest  Level FlightAware Approximate
Wed 16:43:00 21.2036 -86.7065 205° Southwest  Level FlightAware Approximate
Wed 16:44:00 21.1280 -86.7721 223° Southwest  Level FlightAware Approximate
Wed 16:45:00 21.0529 -86.8395 215° Southwest  Level FlightAware Approximate
Wed 16:46:00 21.0167 -86.8667 215° Southwest  Level FlightAware Approximate
Wed 16:47:00 21.0365 -86.8771 215° Southwest  Level Estimated
Wed 16:48:00 21.0365 -86.8771 215° Southwest  Level Estimated
Wed 16:49:00 21.0365 -86.8771 215° Southwest  Level Estimated
Wed 16:50:00 21.0365 -86.8771 215° Southwest  Level Estimated
Wed 16:51:00 21.0365 -86.8771 215° Southwest  Level Estimated
Wed 16:52:00 21.0365 -86.8771 215° Southwest  Level Estimated
Wed 16:53:00 21.0365 -86.8771 215° Southwest  Level Estimated
Wed 16:54:00 21.0365 -86.8771 215° Southwest  Level Estimated
Wed 16:55:00 21.0365 -86.8771 215° Southwest  Level Estimated
Wed 16:56:00 21.0365 -86.8771 215° Southwest  Level Estimated
Wed 16:57:00 21.0365 -86.8771 215° Southwest  Level Estimated
Wed 16:58:00 21.0365 -86.8771 215° Southwest  Level Estimated
Wed 16:59:00 21.0365 -86.8771 215° Southwest  Level Estimated
Wed 17:00:00 21.0365 -86.8771 215° Southwest  Level Estimated

Login

Don't have an account? Register now (free) for customized features, flight alerts, and more!